Time;durP1;ratioP1;P1;durP2;ratioP2;P2;SDS_P1;SDS_P2;PMS_P1;PMS_P2;Temp;Humidity;BMP_temperature;BMP_pressure;BME280_temperature;BME280_humidity;BME280_pressure;Samples;Min_cycle;Max_cycle;Signal;HPM_P1;HPM_P2
2021/09/03 00:00:16;;;;;;;8.60;7.90;;;;;;;15.00;82.94;101342.78;5036003;28;20205;-78
2021/09/03 00:02:42;;;;;;;10.33;8.23;;;;;;;15.00;83.26;101336.69;5037098;28;20240;-78
2021/09/03 00:05:13;;;;;;;9.37;8.57;;;;;;;14.95;83.33;101326.28;5037333;28;20202;-78
2021/09/03 00:07:40;;;;;;;9.47;8.50;;;;;;;14.95;82.95;101335.94;5036141;28;20201;-78
2021/09/03 00:10:09;;;;;;;8.93;8.10;;;;;;;14.95;83.35;101328.06;5036208;28;20229;-79
2021/09/03 00:12:35;;;;;;;8.57;7.87;;;;;;;14.93;83.01;101341.22;5037267;28;20282;-79
2021/09/03 00:15:04;;;;;;;8.67;7.97;;;;;;;14.91;83.03;101343.03;5037523;28;20225;-79
2021/09/03 00:17:31;;;;;;;8.13;7.53;;;;;;;14.84;83.29;101323.00;5035780;28;20213;-78
2021/09/03 00:19:57;;;;;;;9.03;8.23;;;;;;;14.83;83.05;101326.56;5032923;28;20248;-79
2021/09/03 00:22:24;;;;;;;9.67;8.90;;;;;;;14.82;83.06;101330.06;5034900;28;20711;-79
2021/09/03 00:24:50;;;;;;;9.40;8.60;;;;;;;14.74;83.39;101321.50;5037737;28;20208;-78
2021/09/03 00:27:16;;;;;;;8.33;7.57;;;;;;;14.66;82.90;101309.38;5033129;28;20762;-77
2021/09/03 00:29:43;;;;;;;9.70;8.87;;;;;;;14.62;83.72;101304.22;5034532;28;20212;-79
2021/09/03 00:32:11;;;;;;;10.03;8.97;;;;;;;14.63;84.09;101285.81;5033805;28;20221;-79
2021/09/03 00:34:37;;;;;;;10.17;9.33;;;;;;;14.60;84.22;101283.25;5035204;28;20201;-78
2021/09/03 00:37:04;;;;;;;10.33;9.27;;;;;;;14.62;84.27;101281.44;5034421;28;20205;-79
2021/09/03 00:39:30;;;;;;;9.20;8.47;;;;;;;14.62;83.92;101280.59;5037340;28;20209;-77
2021/09/03 00:41:56;;;;;;;8.37;7.67;;;;;;;14.63;83.54;101293.69;5038552;28;20243;-79
2021/09/03 00:44:23;;;;;;;9.87;8.80;;;;;;;14.65;83.57;101319.94;5036268;28;20223;-79
2021/09/03 00:46:49;;;;;;;9.60;8.80;;;;;;;14.56;83.95;101305.22;5035608;28;20213;-80
2021/09/03 00:49:17;;;;;;;8.80;8.00;;;;;;;14.56;83.55;101292.09;5035474;28;20737;-81
2021/09/03 00:51:44;;;;;;;13.47;8.30;;;;;;;14.53;83.44;101294.75;5036795;28;20230;-79
2021/09/03 00:54:11;;;;;;;9.83;8.90;;;;;;;14.57;83.37;101309.59;5036645;28;20209;-78
2021/09/03 00:56:37;;;;;;;9.90;8.93;;;;;;;14.57;82.58;101330.63;5034567;28;20731;-80
2021/09/03 00:59:04;;;;;;;9.67;8.97;;;;;;;14.52;83.28;101310.56;5037764;28;20239;-78
2021/09/03 01:01:30;;;;;;;9.80;8.20;;;;;;;14.46;83.37;101308.91;5034039;28;20230;-79
2021/09/03 01:03:56;;;;;;;10.43;9.57;;;;;;;14.41;83.50;101305.50;5037961;28;20232;-80
2021/09/03 01:06:25;;;;;;;8.97;8.17;;;;;;;14.41;83.97;101292.38;5037408;28;20214;-79
2021/09/03 01:08:51;;;;;;;9.50;8.73;;;;;;;14.35;84.67;101259.25;5035197;28;20209;-79
2021/09/03 01:11:18;;;;;;;9.40;8.63;;;;;;;14.26;85.57;101228.78;5035358;28;20232;-77
2021/09/03 01:13:44;;;;;;;9.70;8.83;;;;;;;14.28;84.81;101249.75;5034425;28;20201;-78
2021/09/03 01:16:11;;;;;;;9.23;8.33;;;;;;;14.36;84.21;101268.00;5034865;28;20209;-77
2021/09/03 01:18:37;;;;;;;10.07;9.07;;;;;;;14.35;84.11;101279.38;5036421;28;20277;-78
2021/09/03 01:21:04;;;;;;;9.20;8.40;;;;;;;14.33;84.41;101279.44;5037822;28;20283;-77
2021/09/03 01:23:32;;;;;;;9.07;8.27;;;;;;;14.30;83.77;101284.72;5034630;28;20234;-78
2021/09/03 01:26:01;;;;;;;9.40;8.67;;;;;;;14.22;83.73;101287.53;5033070;28;20287;-78
2021/09/03 01:28:27;;;;;;;10.13;9.20;;;;;;;14.27;83.45;101298.81;5037671;28;20210;-78
2021/09/03 01:30:54;;;;;;;11.03;9.73;;;;;;;14.21;83.94;101283.19;5035135;28;20228;-77
2021/09/03 01:33:20;;;;;;;9.37;8.57;;;;;;;14.14;85.14;101254.44;5034668;28;20271;-78
2021/09/03 01:35:46;;;;;;;9.97;9.07;;;;;;;14.11;84.67;101242.22;5038743;28;20193;-76
2021/09/03 01:38:13;;;;;;;9.60;8.80;;;;;;;14.19;83.48;101263.06;5035976;28;20241;-79
2021/09/03 01:40:40;;;;;;;10.67;9.67;;;;;;;14.13;84.12;101265.81;5030791;28;20225;-79
2021/09/03 01:43:07;;;;;;;9.67;8.77;;;;;;;14.11;83.52;101268.47;5030073;28;20304;-78
2021/09/03 01:45:33;;;;;;;10.37;8.70;;;;;;;14.03;83.51;101263.41;5031287;28;20216;-80
2021/09/03 01:48:00;;;;;;;10.13;9.33;;;;;;;14.11;82.69;101299.97;5033498;28;20212;-79
2021/09/03 01:50:26;;;;;;;10.00;9.10;;;;;;;14.02;83.96;101266.91;5029218;28;20742;-79
2021/09/03 01:52:53;;;;;;;10.17;9.37;;;;;;;13.96;83.94;101251.28;5028863;28;20247;-79
2021/09/03 01:55:19;;;;;;;10.63;9.60;;;;;;;13.89;84.20;101260.16;5037446;28;20207;-78
2021/09/03 01:57:47;;;;;;;11.30;10.50;;;;;;;13.90;85.20;101231.28;5031534;28;20215;-78
2021/09/03 02:00:15;;;;;;;10.23;9.33;;;;;;;13.82;85.90;101192.97;5031319;28;20211;-79
2021/09/03 02:02:41;;;;;;;10.43;9.50;;;;;;;13.82;85.39;101213.97;5031849;28;20318;-78
2021/09/03 02:05:09;;;;;;;10.53;9.67;;;;;;;13.88;85.22;101227.81;5027610;28;20205;-78
2021/09/03 02:07:35;;;;;;;10.23;9.37;;;;;;;13.85;85.11;101225.25;5032844;28;20220;-79
2021/09/03 02:10:01;;;;;;;10.47;9.63;;;;;;;13.87;84.65;101238.34;5030265;28;20246;-78
2021/09/03 02:12:28;;;;;;;10.07;9.27;;;;;;;13.85;84.56;101237.50;5030397;28;20286;-79
2021/09/03 02:14:55;;;;;;;11.17;10.17;;;;;;;13.81;85.93;101192.09;5031674;28;20217;-77
2021/09/03 02:17:22;;;;;;;11.07;10.20;;;;;;;13.76;85.50;101190.47;5029629;28;20238;-78
2021/09/03 02:19:48;;;;;;;9.70;8.83;;;;;;;13.80;85.01;101218.38;5031434;28;20197;-78
2021/09/03 02:22:14;;;;;;;12.30;11.07;;;;;;;13.90;86.78;101184.03;5030844;28;20247;-77
2021/09/03 02:24:41;;;;;;;12.83;11.63;;;;;;;13.83;87.61;101156.19;5027992;28;20240;-77
2021/09/03 02:27:07;;;;;;;12.40;11.40;;;;;;;13.85;87.84;101138.63;5028138;28;20239;-78
2021/09/03 02:29:33;;;;;;;12.83;11.73;;;;;;;13.89;87.31;101148.19;5026936;28;20232;-78
2021/09/03 02:32:01;;;;;;;11.77;10.87;;;;;;;13.87;87.04;101171.00;5029651;28;20227;-77
2021/09/03 02:34:28;;;;;;;13.03;11.77;;;;;;;13.80;86.12;101200.88;5028027;28;20247;-80
2021/09/03 02:36:54;;;;;;;11.93;10.87;;;;;;;13.72;86.31;101187.03;5032692;28;20235;-80
2021/09/03 02:39:20;;;;;;;13.40;12.30;;;;;;;13.69;86.49;101171.34;5028428;28;20753;-79
2021/09/03 02:41:47;;;;;;;12.80;11.70;;;;;;;13.75;86.56;101179.09;5035179;28;20230;-79
2021/09/03 02:44:13;;;;;;;14.37;13.07;;;;;;;13.62;86.25;101188.97;5033493;28;20270;-78
2021/09/03 02:46:39;;;;;;;12.80;11.70;;;;;;;13.60;86.00;101189.91;5027960;28;20212;-77
2021/09/03 02:49:07;;;;;;;15.23;13.93;;;;;;;13.59;87.12;101167.19;5036232;28;20217;-78
2021/09/03 02:51:33;;;;;;;13.63;12.53;;;;;;;13.54;86.37;101163.78;5034863;28;20281;-76
2021/09/03 02:54:00;;;;;;;15.10;12.50;;;;;;;13.54;85.76;101184.75;5033499;28;20209;-77
2021/09/03 02:56:26;;;;;;;13.33;12.40;;;;;;;13.53;86.31;101188.28;5031958;28;20213;-78
2021/09/03 02:58:52;;;;;;;14.33;13.13;;;;;;;13.48;87.03;101165.63;5033638;28;20755;-78
2021/09/03 03:01:19;;;;;;;13.53;12.47;;;;;;;13.53;86.58;101168.16;5034373;28;21206;-77
2021/09/03 03:03:45;;;;;;;13.63;12.23;;;;;;;13.61;86.56;101162.78;5031426;28;20225;-78
2021/09/03 03:06:13;;;;;;;14.10;12.90;;;;;;;13.46;86.98;101162.19;5030095;28;20267;-77
2021/09/03 03:08:39;;;;;;;13.90;12.70;;;;;;;13.41;86.19;101185.00;5031222;28;20298;-76
2021/09/03 03:11:05;;;;;;;13.17;12.17;;;;;;;13.38;85.67;101203.44;5031212;28;20233;-78
2021/09/03 03:13:32;;;;;;;13.60;12.37;;;;;;;13.36;85.34;101202.59;5031046;28;20205;-78
2021/09/03 03:15:58;;;;;;;13.60;12.30;;;;;;;13.36;85.10;101206.94;5033171;28;20234;-78
2021/09/03 03:18:25;;;;;;;13.53;12.50;;;;;;;13.26;85.75;101180.88;5034182;28;20215;-78
2021/09/03 03:20:51;;;;;;;13.17;12.17;;;;;;;13.18;87.49;101132.97;5033750;28;21223;-78
2021/09/03 03:23:20;;;;;;;12.77;11.73;;;;;;;13.20;86.47;101146.91;5029361;28;20232;-78
2021/09/03 03:25:46;;;;;;;12.97;12.03;;;;;;;13.21;85.45;101174.00;5032024;28;20246;-78
2021/09/03 03:28:13;;;;;;;13.97;12.13;;;;;;;13.27;85.02;101198.31;5035900;28;20316;-78
2021/09/03 03:30:39;;;;;;;13.53;12.27;;;;;;;13.27;85.14;101213.19;5029832;28;20228;-77
2021/09/03 03:33:05;;;;;;;13.67;12.43;;;;;;;13.25;84.70;101210.59;5032151;28;20205;-78
2021/09/03 03:35:32;;;;;;;13.37;12.10;;;;;;;13.25;84.43;101210.59;5030440;28;20223;-79
2021/09/03 03:37:58;;;;;;;13.00;12.00;;;;;;;13.28;84.51;101228.91;5033113;28;20232;-78
2021/09/03 03:40:26;;;;;;;12.60;11.43;;;;;;;13.18;84.90;101208.09;5034741;28;20217;-78
2021/09/03 03:42:52;;;;;;;12.07;11.17;;;;;;;13.21;85.10;101200.19;5034345;28;20619;-78
2021/09/03 03:45:19;;;;;;;12.50;11.50;;;;;;;13.25;86.69;101124.06;5032592;28;20247;-77
2021/09/03 03:47:45;;;;;;;12.93;11.80;;;;;;;13.26;87.37;101107.47;5034271;28;20264;-76
2021/09/03 03:50:12;;;;;;;12.13;11.23;;;;;;;13.29;87.50;101094.31;5039492;28;20203;-78
2021/09/03 03:52:39;;;;;;;12.67;11.73;;;;;;;13.35;86.38;101137.91;5029241;28;20225;-78
2021/09/03 03:55:05;;;;;;;13.20;12.10;;;;;;;13.36;85.73;101151.88;5035037;28;20542;-78
2021/09/03 03:57:33;;;;;;;11.13;10.30;;;;;;;13.43;86.27;101137.75;5031349;28;20269;-78
2021/09/03 03:59:59;;;;;;;12.40;11.40;;;;;;;13.26;87.30;101117.06;5028055;28;20266;-79
2021/09/03 04:02:26;;;;;;;12.30;11.50;;;;;;;13.16;88.52;101077.09;5031443;28;20288;-77
2021/09/03 04:04:52;;;;;;;15.37;14.27;;;;;;;12.96;89.42;101046.00;5033688;28;20777;-77
2021/09/03 04:07:19;;;;;;;17.13;15.60;;;;;;;12.55;91.56;100989.13;5029409;28;20215;-78
2021/09/03 04:09:45;;;;;;;17.10;15.70;;;;;;;12.20;93.70;100923.44;5030031;28;20212;-78
2021/09/03 04:12:11;;;;;;;31.23;17.80;;;;;;;11.92;95.94;100863.75;5028370;28;20226;-77
2021/09/03 04:14:40;;;;;;;23.10;15.83;;;;;;;11.76;97.72;100820.41;5032807;28;20632;-76
2021/09/03 04:17:07;;;;;;;40.77;17.33;;;;;;;11.65;98.29;100799.66;5026049;28;20247;-78
2021/09/03 04:19:33;;;;;;;28.70;16.27;;;;;;;11.41;99.67;100780.03;5033739;28;20726;-77
2021/09/03 04:22:00;;;;;;;28.37;16.63;;;;;;;11.45;100.00;100768.63;5031840;28;20225;-78
2021/09/03 04:24:26;;;;;;;39.40;20.10;;;;;;;11.42;100.00;100770.47;5033470;28;20284;-78
2021/09/03 04:26:53;;;;;;;25.50;20.53;;;;;;;11.39;100.00;100770.50;5035125;28;20258;-77
2021/09/03 04:29:19;;;;;;;23.37;21.17;;;;;;;11.46;100.00;100772.13;5026655;28;20208;-78
2021/09/03 04:31:47;;;;;;;23.20;20.93;;;;;;;11.51;100.00;100789.44;5032990;28;20232;-77
2021/09/03 04:34:13;;;;;;;25.93;22.83;;;;;;;11.56;100.00;100810.28;5029470;28;20205;-77
2021/09/03 04:36:39;;;;;;;22.10;20.03;;;;;;;11.56;100.00;100828.59;5034202;28;20665;-78
2021/09/03 04:39:05;;;;;;;25.10;22.80;;;;;;;11.57;100.00;100847.75;5031972;28;20623;-77
2021/09/03 04:41:32;;;;;;;28.40;24.83;;;;;;;11.64;100.00;100854.63;5035623;28;20282;-77
2021/09/03 04:43:58;;;;;;;28.13;24.30;;;;;;;11.73;100.00;100872.75;5034470;28;20314;-78
2021/09/03 04:46:24;;;;;;;53.57;32.13;;;;;;;11.81;100.00;100898.78;5029948;28;20263;-78
2021/09/03 04:48:52;;;;;;;31.73;25.40;;;;;;;11.88;100.00;100913.50;5033703;28;20628;-76
2021/09/03 04:51:18;;;;;;;28.13;23.87;;;;;;;11.92;100.00;100930.91;5035558;28;20243;-78
2021/09/03 04:53:45;;;;;;;26.03;22.83;;;;;;;12.02;100.00;100960.41;5038785;28;20220;-78
2021/09/03 04:56:11;;;;;;;26.53;21.50;;;;;;;12.23;100.00;100965.28;5039015;28;20205;-78
2021/09/03 04:58:37;;;;;;;20.30;18.60;;;;;;;12.37;100.00;100993.81;5035261;28;20223;-78
2021/09/03 05:01:04;;;;;;;20.53;18.70;;;;;;;12.52;100.00;101045.03;5037013;28;20223;-78
2021/09/03 05:03:30;;;;;;;16.37;14.77;;;;;;;12.62;97.97;101101.63;5034540;28;20290;-78
2021/09/03 05:05:58;;;;;;;16.90;15.40;;;;;;;12.78;97.67;101115.31;5033493;28;20252;-78
2021/09/03 05:08:24;;;;;;;22.63;20.40;;;;;;;12.89;97.36;101116.00;5032802;28;20212;-78
2021/09/03 05:10:50;;;;;;;22.43;20.30;;;;;;;13.02;97.78;101106.19;5034612;28;20591;-77
2021/09/03 05:13:17;;;;;;;20.33;18.50;;;;;;;13.03;95.85;101154.22;5034651;28;20208;-78
2021/09/03 05:15:45;;;;;;;14.70;13.57;;;;;;;13.09;93.64;101225.72;5034422;28;20203;-78
2021/09/03 05:18:11;;;;;;;15.07;13.77;;;;;;;13.17;92.33;101274.56;5035461;28;20203;-77
2021/09/03 05:20:37;;;;;;;14.97;13.87;;;;;;;13.15;91.73;101300.78;5029935;28;20236;-78
2021/09/03 05:23:05;;;;;;;13.47;12.37;;;;;;;13.13;92.14;101294.69;5035297;28;20209;-78
2021/09/03 05:25:31;;;;;;;16.13;14.40;;;;;;;13.11;92.07;101291.25;5035091;28;20271;-78
2021/09/03 05:27:58;;;;;;;16.07;14.50;;;;;;;13.13;92.54;101272.88;5033920;28;20250;-77
2021/09/03 05:30:24;;;;;;;16.53;15.17;;;;;;;13.21;93.50;101237.75;5029407;28;20212;-77
2021/09/03 05:32:52;;;;;;;20.63;18.73;;;;;;;13.36;94.56;101201.69;5041872;28;20654;-78
2021/09/03 05:35:19;;;;;;;26.00;22.87;;;;;;;13.37;95.20;101164.97;5030740;28;20264;-76
2021/09/03 05:37:45;;;;;;;26.63;23.93;;;;;;;13.27;96.39;101134.53;5029809;28;20213;-78
2021/09/03 05:40:14;;;;;;;26.43;23.77;;;;;;;13.31;97.07;101113.50;5027794;28;20204;-77
2021/09/03 05:42:40;;;;;;;24.40;21.93;;;;;;;13.43;96.78;101120.25;5026531;28;20232;-80
2021/09/03 05:45:08;;;;;;;17.17;15.77;;;;;;;13.51;94.56;101170.81;5025032;28;20985;-79
2021/09/03 05:47:34;;;;;;;13.97;12.77;;;;;;;13.55;92.25;101263.44;5038722;28;20576;-77
2021/09/03 05:50:01;;;;;;;12.33;11.43;;;;;;;13.54;90.53;101326.41;5034171;28;20214;-77
2021/09/03 05:52:27;;;;;;;14.40;13.00;;;;;;;13.51;90.46;101345.69;5027984;28;20236;-76
2021/09/03 05:54:53;;;;;;;13.87;12.87;;;;;;;13.27;92.21;101305.81;5037769;28;20201;-77
2021/09/03 05:57:21;;;;;;;15.87;14.77;;;;;;;12.97;93.39;101246.03;5032357;28;20208;-77
2021/09/03 05:59:49;;;;;;;17.80;16.50;;;;;;;12.77;95.09;101173.00;5029700;28;20940;-77
2021/09/03 06:02:15;;;;;;;44.70;19.03;;;;;;;12.35;97.63;101110.81;5030471;28;20238;-77
2021/09/03 06:04:42;;;;;;;25.33;17.33;;;;;;;12.08;99.12;101060.59;5036223;28;20239;-77
2021/09/03 06:07:08;;;;;;;17.50;16.20;;;;;;;12.14;99.18;101030.00;5031448;28;20210;-77
2021/09/03 06:09:35;;;;;;;15.67;14.53;;;;;;;12.16;99.04;101043.91;5035895;28;20212;-76
2021/09/03 06:12:01;;;;;;;17.50;16.10;;;;;;;12.28;99.79;101035.84;5040530;28;20232;-76
2021/09/03 06:14:29;;;;;;;18.50;17.00;;;;;;;12.25;99.74;101043.75;5034390;28;20219;-77
2021/09/03 06:16:55;;;;;;;21.97;19.90;;;;;;;12.24;100.00;101028.94;5035267;28;20214;-76
2021/09/03 06:19:22;;;;;;;23.07;20.87;;;;;;;12.35;100.00;100990.38;5034469;28;20643;-79
2021/09/03 06:21:49;;;;;;;19.90;18.13;;;;;;;12.33;100.00;100989.53;5034236;28;20231;-77
2021/09/03 06:24:31;;;;;;;28.27;24.07;;;;;;;12.43;100.00;100990.25;5031576;28;20551;-77
2021/09/03 06:26:58;;;;;;;24.90;22.43;;;;;;;12.46;100.00;100990.16;5034002;28;20293;-77
2021/09/03 06:29:41;;;;;;;29.33;23.23;;;;;;;12.52;100.00;100995.28;5033283;28;20575;-78
2021/09/03 06:32:10;;;;;;;30.10;24.63;;;;;;;12.59;100.00;100982.97;5027324;28;20239;-77
2021/09/03 06:34:40;;;;;;;31.67;25.50;;;;;;;12.70;100.00;100984.50;5033287;28;20691;-77
2021/09/03 06:37:07;;;;;;;33.87;26.37;;;;;;;12.74;100.00;100985.28;5036274;28;20216;-77
2021/09/03 06:39:34;;;;;;;32.33;25.23;;;;;;;12.80;100.00;100987.78;5032432;28;20216;-78
2021/09/03 06:42:01;;;;;;;28.57;25.47;;;;;;;12.95;100.00;100993.63;5031527;28;20238;-78
2021/09/03 06:44:28;;;;;;;30.63;27.43;;;;;;;12.97;100.00;100997.94;5035195;28;20228;-80
2021/09/03 06:46:54;;;;;;;29.87;24.97;;;;;;;13.15;100.00;101001.09;5033051;28;20672;-78
2021/09/03 06:49:22;;;;;;;24.87;22.50;;;;;;;13.07;100.00;101023.06;5037886;28;20732;-77
2021/09/03 06:51:49;;;;;;;23.90;21.50;;;;;;;13.01;100.00;101027.56;5036876;28;20228;-77
2021/09/03 06:54:15;;;;;;;21.33;19.63;;;;;;;12.93;100.00;101029.50;5030564;28;20215;-77
2021/09/03 06:56:41;;;;;;;27.87;24.00;;;;;;;12.93;100.00;101027.72;5031673;28;20272;-77
2021/09/03 06:59:08;;;;;;;21.30;19.47;;;;;;;12.88;100.00;101026.94;5025387;28;20627;-77
2021/09/03 07:01:35;;;;;;;23.37;21.37;;;;;;;12.86;100.00;101023.47;5025867;28;20735;-77
2021/09/03 07:04:01;;;;;;;23.27;21.27;;;;;;;12.80;100.00;101023.59;5024199;28;20233;-77
2021/09/03 07:06:29;;;;;;;21.47;19.57;;;;;;;12.71;100.00;101028.13;5029821;28;20272;-77
2021/09/03 07:08:56;;;;;;;20.53;18.90;;;;;;;12.59;100.00;101041.44;5027175;28;20246;-77
2021/09/03 07:11:23;;;;;;;22.93;20.73;;;;;;;12.53;100.00;101033.69;5026943;28;20227;-76
2021/09/03 07:13:49;;;;;;;22.53;20.23;;;;;;;12.42;100.00;101027.78;5026624;28;20210;-78
2021/09/03 07:16:16;;;;;;;26.43;21.40;;;;;;;12.49;100.00;101011.06;5028463;28;20212;-77
2021/09/03 07:18:42;;;;;;;24.60;22.10;;;;;;;12.60;100.00;101013.50;5033155;28;20254;-78
2021/09/03 07:21:08;;;;;;;29.90;22.63;;;;;;;12.60;100.00;101009.09;5030123;28;20320;-78
2021/09/03 07:23:36;;;;;;;32.33;24.13;;;;;;;12.65;100.00;101002.03;5029776;28;20226;-77
2021/09/03 07:26:03;;;;;;;33.97;23.13;;;;;;;12.74;100.00;101014.09;5028079;28;20318;-77
2021/09/03 07:28:30;;;;;;;40.87;22.30;;;;;;;12.67;100.00;101028.22;5031248;28;20723;-78
2021/09/03 07:30:56;;;;;;;46.80;22.47;;;;;;;12.73;100.00;101024.63;5028219;28;20259;-77
2021/09/03 07:33:22;;;;;;;50.73;25.67;;;;;;;12.75;100.00;101036.78;5029877;28;20220;-76
2021/09/03 07:35:49;;;;;;;53.00;27.27;;;;;;;12.81;100.00;101039.28;5028461;28;20200;-77
2021/09/03 07:38:16;;;;;;;47.97;28.17;;;;;;;12.81;100.00;101048.91;5025461;28;20212;-77
2021/09/03 07:40:44;;;;;;;40.40;28.50;;;;;;;12.90;100.00;101054.84;5027877;28;20223;-78
2021/09/03 07:43:10;;;;;;;40.30;29.20;;;;;;;12.91;100.00;101067.06;5032068;28;20206;-78
2021/09/03 07:45:39;;;;;;;54.03;29.43;;;;;;;12.93;100.00;101067.03;5031542;28;20270;-77
2021/09/03 07:48:06;;;;;;;47.10;31.67;;;;;;;13.01;100.00;101083.47;5028259;28;21004;-77
2021/09/03 07:50:33;;;;;;;45.07;30.90;;;;;;;13.03;100.00;101084.31;5028621;28;20216;-77
2021/09/03 07:53:00;;;;;;;38.53;30.63;;;;;;;13.11;100.00;101087.63;5027279;28;20211;-78
2021/09/03 07:55:26;;;;;;;37.87;28.97;;;;;;;13.23;100.00;101088.31;5027780;28;20204;-78
2021/09/03 07:57:54;;;;;;;44.23;30.73;;;;;;;13.44;100.00;101095.78;5032975;28;20264;-79
2021/09/03 08:00:20;;;;;;;38.57;29.60;;;;;;;13.66;100.00;101100.59;5029064;28;20265;-77
2021/09/03 08:02:46;;;;;;;42.07;31.63;;;;;;;13.84;100.00;101108.06;5027025;28;20269;-78
2021/09/03 08:05:13;;;;;;;35.93;30.07;;;;;;;14.03;100.00;101110.28;5029782;28;20228;-78
2021/09/03 08:07:41;;;;;;;34.27;28.60;;;;;;;14.18;100.00;101117.81;5029450;28;20231;-78
2021/09/03 08:10:09;;;;;;;36.57;29.70;;;;;;;14.35;100.00;101124.41;5026133;28;20215;-78
2021/09/03 08:12:35;;;;;;;37.10;29.07;;;;;;;14.55;100.00;101150.22;5030244;28;20238;-79
2021/09/03 08:15:04;;;;;;;33.30;27.80;;;;;;;14.62;100.00;101188.63;5023866;28;20205;-78
2021/09/03 08:17:31;;;;;;;36.63;28.80;;;;;;;14.75;100.00;101199.72;5025289;28;20587;-77
2021/09/03 08:19:57;;;;;;;36.60;28.80;;;;;;;14.84;100.00;101212.63;5027483;28;20211;-77
2021/09/03 08:22:23;;;;;;;30.80;27.43;;;;;;;14.94;100.00;101223.78;5029005;28;20256;-79
2021/09/03 08:24:50;;;;;;;42.53;27.17;;;;;;;15.04;100.00;101207.75;5029760;28;20229;-79
2021/09/03 08:27:17;;;;;;;29.13;25.30;;;;;;;15.18;100.00;101224.94;5030540;28;20907;-79
2021/09/03 08:29:45;;;;;;;32.77;26.87;;;;;;;15.28;99.15;101250.97;5031000;28;20249;-79
2021/09/03 08:32:13;;;;;;;28.73;25.90;;;;;;;15.40;98.38;101278.72;5035447;28;20234;-78
2021/09/03 08:34:39;;;;;;;28.57;25.17;;;;;;;15.54;98.20;101269.59;5033092;28;20209;-79
2021/09/03 08:37:06;;;;;;;31.50;23.83;;;;;;;15.66;96.57;101303.50;5037622;28;20204;-80
2021/09/03 08:39:32;;;;;;;28.93;23.40;;;;;;;15.66;94.98;101356.16;5029834;28;20202;-78
2021/09/03 08:41:58;;;;;;;28.90;25.27;;;;;;;15.76;94.94;101354.19;5038688;28;20234;-78
2021/09/03 08:44:25;;;;;;;28.60;24.03;;;;;;;15.84;95.06;101349.59;5032319;28;20311;-77
2021/09/03 08:46:51;;;;;;;28.00;25.00;;;;;;;15.93;94.93;101345.81;5035857;28;20732;-78
2021/09/03 08:49:21;;;;;;;25.73;23.07;;;;;;;16.00;93.49;101366.69;5033850;28;20266;-79
2021/09/03 08:51:47;;;;;;;24.70;22.13;;;;;;;16.10;93.34;101384.91;5035108;28;20260;-83
2021/09/03 08:54:13;;;;;;;23.57;21.47;;;;;;;16.10;92.71;101408.59;5036237;28;20271;-79
2021/09/03 08:56:40;;;;;;;20.43;18.37;;;;;;;16.20;92.45;101412.72;5037045;28;20259;-78
2021/09/03 08:59:06;;;;;;;19.90;18.17;;;;;;;16.26;90.74;101454.69;5039352;28;20210;-79
2021/09/03 09:01:33;;;;;;;19.07;17.07;;;;;;;16.30;88.94;101513.47;5039709;28;20234;-78
2021/09/03 09:04:09;;;;;;;18.90;17.33;;;;;;;16.34;88.97;101515.09;5039583;28;20263;-79
2021/09/03 09:06:36;;;;;;;20.60;17.23;;;;;;;16.44;87.54;101553.50;5040670;28;20226;-79
2021/09/03 09:09:06;;;;;;;20.27;18.17;;;;;;;16.55;88.40;101517.19;5040877;28;20217;-78
2021/09/03 09:11:34;;;;;;;17.20;15.67;;;;;;;16.62;87.81;101529.28;5039420;28;20718;-79
2021/09/03 09:14:02;;;;;;;20.53;16.83;;;;;;;16.72;85.56;101601.09;5039732;28;20240;-79
2021/09/03 09:16:31;;;;;;;19.63;17.57;;;;;;;16.77;85.10;101620.31;5039243;28;20212;-78
2021/09/03 09:18:59;;;;;;;21.00;17.33;;;;;;;16.88;86.45;101569.94;5045105;28;20205;-77
2021/09/03 09:21:28;;;;;;;21.03;18.23;;;;;;;16.97;85.99;101555.66;5034705;28;20229;-77
2021/09/03 09:23:58;;;;;;;20.27;18.20;;;;;;;17.07;85.73;101568.53;5039001;28;20604;-78
2021/09/03 09:26:27;;;;;;;19.17;17.37;;;;;;;17.13;85.20;101567.50;5034020;28;20280;-78
2021/09/03 09:28:55;;;;;;;18.60;17.03;;;;;;;17.20;84.48;101600.69;5027259;28;20307;-77
2021/09/03 09:31:33;;;;;;;19.60;16.73;;;;;;;17.27;84.70;101594.34;5034382;28;20307;-79
2021/09/03 09:34:00;;;;;;;17.37;15.77;;;;;;;17.36;83.50;101622.28;5035105;28;20202;-78
2021/09/03 09:36:34;;;;;;;17.20;15.67;;;;;;;17.46;83.70;101618.47;5034387;28;20315;-78
2021/09/03 09:39:02;;;;;;;18.13;16.47;;;;;;;17.53;84.31;101587.47;5027551;28;20209;-80
2021/09/03 09:41:29;;;;;;;16.07;14.67;;;;;;;17.64;82.59;101635.53;5034680;28;20230;-78
2021/09/03 09:43:55;;;;;;;17.70;15.70;;;;;;;17.56;81.66;101663.94;5027925;28;20686;-79
2021/09/03 09:46:24;;;;;;;17.47;16.07;;;;;;;17.62;82.52;101629.44;5029353;28;20787;-78
2021/09/03 09:49:09;;;;;;;18.43;16.83;;;;;;;17.77;83.71;101574.44;5034433;28;20297;-79
2021/09/03 09:51:40;;;;;;;20.17;18.33;;;;;;;17.79;82.71;101591.94;5031168;28;20228;-79
2021/09/03 09:54:10;;;;;;;22.00;19.73;;;;;;;17.78;82.49;101603.44;5032312;28;20212;-78
2021/09/03 09:56:38;;;;;;;21.50;19.40;;;;;;;17.90;82.63;101604.00;5031345;28;20206;-79
2021/09/03 09:59:07;;;;;;;21.33;19.23;;;;;;;17.96;82.46;101591.47;5031023;28;20268;-79
2021/09/03 10:01:34;;;;;;;21.50;19.13;;;;;;;18.06;82.54;101590.28;5033957;28;20318;-78
2021/09/03 10:04:05;;;;;;;21.53;19.37;;;;;;;17.97;80.59;101658.38;5033208;28;20726;-79
2021/09/03 10:06:33;;;;;;;22.83;20.63;;;;;;;18.05;80.54;101656.38;5031153;28;20222;-78
2021/09/03 10:09:00;;;;;;;21.47;19.17;;;;;;;18.22;80.11;101645.28;5027564;28;20210;-78
2021/09/03 10:11:27;;;;;;;23.83;20.50;;;;;;;18.33;80.80;101631.72;5037614;28;20646;-79
2021/09/03 10:13:55;;;;;;;23.67;21.40;;;;;;;18.33;79.71;101664.28;5034415;28;20204;-78
2021/09/03 10:16:22;;;;;;;20.17;18.43;;;;;;;18.31;78.33;101713.69;5032225;28;20261;-78
2021/09/03 10:18:54;;;;;;;18.23;16.53;;;;;;;18.37;78.00;101725.88;5032516;28;20425;-78
2021/09/03 10:21:22;;;;;;;20.07;18.10;;;;;;;18.46;77.83;101718.53;5033223;28;20278;-79
2021/09/03 10:23:57;;;;;;;19.33;17.57;;;;;;;18.58;77.92;101704.06;5035586;28;20216;-77
2021/09/03 10:26:29;;;;;;;18.53;16.83;;;;;;;18.66;77.37;101735.53;5029435;28;20230;-79
2021/09/03 10:29:29;;;;;;;18.47;16.10;;;;;;;18.71;74.88;101781.25;5033601;28;20582;-79
2021/09/03 10:32:14;;;;;;;16.00;14.50;;;;;;;18.78;75.53;101790.69;5032701;28;20267;-78
2021/09/03 10:34:51;;;;;;;14.80;13.40;;;;;;;18.79;74.12;101829.50;5028131;28;20216;-78
2021/09/03 10:37:23;;;;;;;18.80;14.40;;;;;;;18.73;73.48;101828.78;5032097;28;20250;-80
2021/09/03 10:39:52;;;;;;;15.47;13.97;;;;;;;18.69;73.05;101824.50;5027407;28;20207;-79
2021/09/03 10:42:55;;;;;;;14.60;13.23;;;;;;;18.79;73.70;101783.63;5027292;28;20236;-78
2021/09/03 10:45:25;;;;;;;13.20;11.90;;;;;;;18.85;70.80;101884.88;5027097;28;20292;-80
2021/09/03 10:48:03;;;;;;;13.37;12.07;;;;;;;18.91;72.31;101840.59;5028743;28;20273;-80
2021/09/03 10:50:32;;;;;;;12.57;11.37;;;;;;;19.05;73.27;101804.00;5027597;28;20218;-80
2021/09/03 10:53:21;;;;;;;15.50;14.00;;;;;;;19.20;73.13;101803.47;5028352;28;20248;-80
2021/09/03 10:56:12;;;;;;;14.53;13.13;;;;;;;19.25;71.84;101814.78;5028857;28;20581;-78
2021/09/03 10:58:42;;;;;;;13.03;12.00;;;;;;;19.23;71.22;101851.06;5029811;28;20622;-78
2021/09/03 11:01:53;;;;;;;12.53;11.40;;;;;;;19.44;72.18;101825.66;5027390;28;20774;-78
2021/09/03 11:04:23;;;;;;;14.17;11.80;;;;;;;19.55;68.47;101907.38;5021383;28;20692;-78
2021/09/03 11:07:04;;;;;;;11.10;10.10;;;;;;;19.57;69.19;101926.75;5026811;28;20345;-77
2021/09/03 11:09:31;;;;;;;13.53;12.20;;;;;;;19.52;70.46;101859.78;5026338;28;20242;-78
2021/09/03 11:12:01;;;;;;;14.30;12.43;;;;;;;19.70;71.35;101810.66;5029535;28;20229;-77